Fairbanks International, AK

6:59 AM AKDT on September 25, 2016 (GMT -0800)
Forrest Ridge | | Change Station

Elev 822 ft 64.82 °N, 147.97 °W | Updated 5 minutes ago

Light Rain
Light Rain
36.9 °F
Feels Like 37 °F
N
0.0
Wind Variable Wind from North

Today
High -- | Low -- °F
--% Chance of Precip.
Yesterday
High -- | Low -- °F
Precip. -- in
Pressure 29.84 in
Visibility 8.0 miles
Clouds Few 1200 ft
Mostly Cloudy 2600 ft
Overcast 4000 ft
Windchill 37 °F
Dew Point 36 °F
Humidity 98%
Rainfall 0.09 in
Snow Depth Not available.
7:45 AM 7:38 PM
Waning Crescent, 27% visible
METAR PAFA 251453Z 24005KT 8SM -RA FEW012 BKN026 OVC040 04/03 A2982 RMK AO2 SLP103 P0002 60008 T00390033 53012 $
Pressure 29.84 in
Visibility 8.0 miles
Clouds Few 1200 ft
Mostly Cloudy 2600 ft
Overcast 4000 ft
Windchill 37 °F
Dew Point 36 °F
Humidity 98%
Rainfall 0.09 in
Snow Depth Not available.
7:45 AM 7:38 PM
Waning Crescent, 27% visible
METAR PAFA 251453Z 24005KT 8SM -RA FEW012 BKN026 OVC040 04/03 A2982 RMK AO2 SLP103 P0002 60008 T00390033 53012 $

10-Day Weather Forecast

Almanac

Astronomy

Sep. 25, 2016 Rise Set
Actual Time
Civil Twilight
Nautical Twilight
Astronomical Twilight
Moon
Length of Visible Light
Length of Day
Tomorrow will be .
, % of the Moon is Illuminated

Today's Extremes

State Highs State Lows

Community

WunderPhotos

Upload Photos

1,941,614 photos uploaded!

WunderBlog® & News

Nearby

Air Quality

  Air Quality AQ Index Pollutant
Not available.

Snow Depth

Station Depth Elevation

Earthquake Activity

City Distance Mag. Time & Date
Minimum magnitude displayed is 2.5.

Coastal Water Temperatures

Place Temperature

Stations

Nearby Weather Stations

Station Location Temp. Windchill Dew Point Humidity Wind Precip. Elev Updated Type
                   

Watches & Warnings

There are currently no watches in effect.